TNO7207 SKSP-MPTO
Flight info
| Callsign | TNO7207 |
|---|---|
| Flight time | 0h 52m |
| Altitude | 33000 |
| Route | BIXOX2B BIXOX DCT MORLI DCT OSUPA OSUPA2A |
| Aircraft | E75L/M-SDE3GILORVW/S |
Departure
| Time | 2026-05-06 23:05 |
|---|---|
| Airport | Gustavo Rojas Pinilla International Airport (SKSP) |
Arrival
| Time | 2026-05-06 23:58 |
|---|---|
| Airport | Tocumen International Airport (MPTO) |
| Time | Latitude | Longitude | Altitude | Speed | Heading |
|---|---|---|---|---|---|
| 2026-05-06 22:32 | 12.58679 | -81.70274 | 16 ft | 0 kts | 150° |
| 2026-05-06 22:52 | 12.58695 | -81.70284 | 17 ft | 4 kts | 150° |
| 2026-05-06 22:53 | 12.58719 | -81.70298 | 18 ft | 4 kts | 150° |
| 2026-05-06 22:53 | 12.58732 | -81.70305 | 18 ft | 0 kts | 150° |
| 2026-05-06 22:59 | 12.58731 | -81.70305 | 18 ft | 1 kts | 150° |
| 2026-05-06 22:59 | 12.58719 | -81.70302 | 16 ft | 3 kts | 176° |
| 2026-05-06 22:59 | 12.58700 | -81.70313 | 16 ft | 4 kts | 230° |
| 2026-05-06 22:59 | 12.58697 | -81.70342 | 16 ft | 5 kts | 286° |
| 2026-05-06 23:00 | 12.58713 | -81.70385 | 16 ft | 7 kts | 291° |
| 2026-05-06 23:00 | 12.58728 | -81.70430 | 19 ft | 7 kts | 282° |
| 2026-05-06 23:00 | 12.58722 | -81.70484 | 19 ft | 9 kts | 250° |
| 2026-05-06 23:00 | 12.58688 | -81.70547 | 22 ft | 12 kts | 239° |
| 2026-05-06 23:01 | 12.58629 | -81.70650 | 26 ft | 20 kts | 240° |
| 2026-05-06 23:01 | 12.58559 | -81.70775 | 28 ft | 21 kts | 240° |
| 2026-05-06 23:01 | 12.58483 | -81.70908 | 30 ft | 22 kts | 240° |
| 2026-05-06 23:01 | 12.58404 | -81.71047 | 33 ft | 23 kts | 239° |
| 2026-05-06 23:02 | 12.58315 | -81.71200 | 31 ft | 27 kts | 239° |
| 2026-05-06 23:02 | 12.58218 | -81.71368 | 31 ft | 28 kts | 239° |
| 2026-05-06 23:02 | 12.58112 | -81.71550 | 29 ft | 31 kts | 239° |
| 2026-05-06 23:02 | 12.58003 | -81.71742 | 30 ft | 32 kts | 239° |
| 2026-05-06 23:03 | 12.57893 | -81.71931 | 33 ft | 22 kts | 237° |
| 2026-05-06 23:03 | 12.57812 | -81.72010 | 33 ft | 10 kts | 247° |
| 2026-05-06 23:03 | 12.57829 | -81.72048 | 33 ft | 1 kts | 346° |
| 2026-05-06 23:03 | 12.57831 | -81.72047 | 33 ft | 0 kts | 17° |
| 2026-05-06 23:04 | 12.57833 | -81.72044 | 33 ft | 1 kts | 53° |
| 2026-05-06 23:04 | 12.57834 | -81.72041 | 33 ft | 0 kts | 59° |
| 2026-05-06 23:05 | 12.57910 | -81.71909 | 32 ft | 57 kts | 60° |
| 2026-05-06 23:05 | 12.58266 | -81.71289 | 32 ft | 141 kts | 60° |
| 2026-05-06 23:05 | 12.58827 | -81.70324 | 647 ft | 157 kts | 62° |
| 2026-05-06 23:06 | 12.59376 | -81.69398 | 1785 ft | 149 kts | 60° |
| 2026-05-06 23:06 | 12.59835 | -81.68563 | 2709 ft | 138 kts | 71° |
| 2026-05-06 23:06 | 12.59792 | -81.67560 | 3196 ft | 153 kts | 118° |
| 2026-05-06 23:06 | 12.59009 | -81.66739 | 3537 ft | 176 kts | 137° |
| 2026-05-06 23:07 | 12.57912 | -81.65898 | 3771 ft | 211 kts | 143° |
| 2026-05-06 23:07 | 12.56562 | -81.65122 | 4245 ft | 234 kts | 152° |
| 2026-05-06 23:07 | 12.55004 | -81.64478 | 4760 ft | 255 kts | 159° |
| 2026-05-06 23:07 | 12.53234 | -81.63974 | 5303 ft | 272 kts | 164° |
| 2026-05-06 23:08 | 12.51437 | -81.63365 | 6113 ft | 271 kts | 150° |
| 2026-05-06 23:08 | 12.49776 | -81.62434 | 6961 ft | 272 kts | 146° |
| 2026-05-06 23:08 | 12.48137 | -81.61456 | 7806 ft | 274 kts | 147° |
| 2026-05-06 23:08 | 12.46471 | -81.60480 | 8611 ft | 279 kts | 148° |
| 2026-05-06 23:09 | 12.44764 | -81.59490 | 9377 ft | 283 kts | 148° |
| 2026-05-06 23:09 | 12.43026 | -81.58503 | 10132 ft | 289 kts | 149° |
| 2026-05-06 23:09 | 12.41189 | -81.57480 | 10396 ft | 313 kts | 149° |
| 2026-05-06 23:09 | 12.39197 | -81.56391 | 10621 ft | 336 kts | 150° |
| 2026-05-06 23:10 | 12.37085 | -81.55251 | 10968 ft | 349 kts | 150° |
| 2026-05-06 23:10 | 12.34918 | -81.54093 | 11593 ft | 352 kts | 150° |
| 2026-05-06 23:10 | 12.32741 | -81.52941 | 12349 ft | 353 kts | 150° |
| 2026-05-06 23:10 | 12.30553 | -81.51786 | 13099 ft | 355 kts | 150° |
| 2026-05-06 23:11 | 12.28345 | -81.50619 | 13797 ft | 359 kts | 150° |
| 2026-05-06 23:11 | 12.26118 | -81.49434 | 14351 ft | 364 kts | 150° |
| 2026-05-06 23:11 | 12.23856 | -81.48224 | 14910 ft | 369 kts | 150° |
| 2026-05-06 23:11 | 12.21569 | -81.47000 | 15511 ft | 373 kts | 150° |
| 2026-05-06 23:12 | 12.19255 | -81.45762 | 16131 ft | 376 kts | 150° |
| 2026-05-06 23:12 | 12.16953 | -81.44531 | 16698 ft | 381 kts | 150° |
| 2026-05-06 23:12 | 12.14561 | -81.43254 | 17291 ft | 385 kts | 150° |
| 2026-05-06 23:12 | 12.12204 | -81.41997 | 17887 ft | 389 kts | 150° |
| 2026-05-06 23:13 | 12.09761 | -81.40695 | 18430 ft | 393 kts | 150° |
| 2026-05-06 23:13 | 12.07356 | -81.39415 | 18930 ft | 397 kts | 150° |
| 2026-05-06 23:13 | 12.04892 | -81.38105 | 19432 ft | 402 kts | 149° |
| 2026-05-06 23:13 | 12.02401 | -81.36779 | 19929 ft | 406 kts | 149° |
| 2026-05-06 23:14 | 11.99886 | -81.35439 | 20439 ft | 409 kts | 149° |
| 2026-05-06 23:14 | 11.97351 | -81.34087 | 20944 ft | 413 kts | 149° |
| 2026-05-06 23:14 | 11.94785 | -81.32718 | 21395 ft | 418 kts | 149° |
| 2026-05-06 23:14 | 11.92196 | -81.31337 | 21868 ft | 422 kts | 149° |
| 2026-05-06 23:15 | 11.89583 | -81.29944 | 22390 ft | 426 kts | 149° |
| 2026-05-06 23:15 | 11.86944 | -81.28539 | 22918 ft | 428 kts | 149° |
| 2026-05-06 23:15 | 11.84286 | -81.27122 | 23337 ft | 434 kts | 149° |
| 2026-05-06 23:15 | 11.81599 | -81.25689 | 23724 ft | 437 kts | 149° |
| 2026-05-06 23:16 | 11.78895 | -81.24246 | 24152 ft | 439 kts | 149° |
| 2026-05-06 23:16 | 11.76180 | -81.22798 | 24589 ft | 441 kts | 149° |
| 2026-05-06 23:16 | 11.73452 | -81.21345 | 25006 ft | 444 kts | 149° |
| 2026-05-06 23:16 | 11.70704 | -81.19882 | 25388 ft | 447 kts | 149° |
| 2026-05-06 23:17 | 11.67939 | -81.18411 | 25796 ft | 450 kts | 149° |
| 2026-05-06 23:17 | 11.65155 | -81.16931 | 26224 ft | 452 kts | 149° |
| 2026-05-06 23:17 | 11.62362 | -81.15446 | 26611 ft | 455 kts | 149° |
| 2026-05-06 23:17 | 11.59550 | -81.13951 | 26985 ft | 458 kts | 149° |
| 2026-05-06 23:18 | 11.56716 | -81.12443 | 27389 ft | 461 kts | 149° |
| 2026-05-06 23:18 | 11.53889 | -81.10897 | 27847 ft | 462 kts | 148° |
| 2026-05-06 23:18 | 11.51077 | -81.09287 | 28209 ft | 465 kts | 147° |
| 2026-05-06 23:18 | 11.48258 | -81.07638 | 28565 ft | 469 kts | 147° |
| 2026-05-06 23:19 | 11.45426 | -81.05975 | 28998 ft | 470 kts | 147° |
| 2026-05-06 23:19 | 11.42592 | -81.04317 | 29595 ft | 468 kts | 148° |
| 2026-05-06 23:19 | 11.39774 | -81.02678 | 30194 ft | 465 kts | 148° |
| 2026-05-06 23:19 | 11.36960 | -81.01047 | 30592 ft | 466 kts | 148° |
| 2026-05-06 23:20 | 11.35089 | -80.99966 | 30740 ft | 468 kts | 148° |
| 2026-05-06 23:20 | 11.31298 | -80.97782 | 30892 ft | 467 kts | 149° |
| 2026-05-06 23:20 | 11.29426 | -80.96706 | 30930 ft | 466 kts | 148° |
| 2026-05-06 23:21 | 11.22890 | -80.92948 | 30981 ft | 463 kts | 148° |
| 2026-05-06 23:21 | 11.17292 | -80.89723 | 30989 ft | 462 kts | 148° |
| 2026-05-06 23:22 | 11.12621 | -80.87030 | 30990 ft | 465 kts | 149° |
| 2026-05-06 23:22 | 11.06976 | -80.83782 | 30991 ft | 467 kts | 149° |
| 2026-05-06 23:23 | 11.01315 | -80.80526 | 30996 ft | 465 kts | 149° |
| 2026-05-06 23:23 | 10.95688 | -80.77290 | 30995 ft | 464 kts | 149° |
| 2026-05-06 23:24 | 10.90070 | -80.74058 | 30992 ft | 464 kts | 149° |
| 2026-05-06 23:24 | 10.84442 | -80.70822 | 30992 ft | 465 kts | 149° |
| 2026-05-06 23:25 | 10.78804 | -80.67581 | 30990 ft | 465 kts | 149° |
| 2026-05-06 23:25 | 10.73161 | -80.64339 | 30992 ft | 466 kts | 149° |
| 2026-05-06 23:26 | 10.67774 | -80.60749 | 30993 ft | 462 kts | 132° |
| 2026-05-06 23:26 | 10.63826 | -80.55640 | 30988 ft | 460 kts | 123° |
| 2026-05-06 23:27 | 10.60120 | -80.50341 | 30993 ft | 460 kts | 124° |
| 2026-05-06 23:27 | 10.56379 | -80.45107 | 30989 ft | 461 kts | 124° |
| 2026-05-06 23:28 | 10.52543 | -80.39890 | 30985 ft | 461 kts | 125° |
| 2026-05-06 23:28 | 10.48682 | -80.34681 | 30986 ft | 461 kts | 125° |
| 2026-05-06 23:29 | 10.44828 | -80.29469 | 30986 ft | 461 kts | 125° |
| 2026-05-06 23:29 | 10.40984 | -80.24263 | 30990 ft | 461 kts | 125° |
| 2026-05-06 23:30 | 10.37160 | -80.19076 | 30887 ft | 446 kts | 125° |
| 2026-05-06 23:30 | 10.35338 | -80.16612 | 30821 ft | 426 kts | 124° |
| 2026-05-06 23:30 | 10.33594 | -80.14260 | 30745 ft | 408 kts | 124° |
| 2026-05-06 23:30 | 10.31921 | -80.12010 | 30693 ft | 391 kts | 124° |
| 2026-05-06 23:31 | 10.30310 | -80.09848 | 30616 ft | 381 kts | 124° |
| 2026-05-06 23:31 | 10.27075 | -80.05502 | 30496 ft | 401 kts | 124° |
| 2026-05-06 23:31 | 10.25368 | -80.03199 | 30287 ft | 416 kts | 124° |
| 2026-05-06 23:32 | 10.23612 | -80.00821 | 29825 ft | 430 kts | 124° |
| 2026-05-06 23:32 | 10.21789 | -79.98340 | 29297 ft | 443 kts | 124° |
| 2026-05-06 23:32 | 10.19950 | -79.95833 | 28772 ft | 441 kts | 124° |
| 2026-05-06 23:32 | 10.18122 | -79.93345 | 28263 ft | 437 kts | 124° |
| 2026-05-06 23:33 | 10.16310 | -79.90876 | 27778 ft | 435 kts | 124° |
| 2026-05-06 23:33 | 10.14506 | -79.88418 | 27337 ft | 434 kts | 123° |
| 2026-05-06 23:33 | 10.12705 | -79.85961 | 26902 ft | 434 kts | 123° |
| 2026-05-06 23:33 | 10.10902 | -79.83502 | 26471 ft | 435 kts | 123° |
| 2026-05-06 23:34 | 10.09097 | -79.81036 | 26048 ft | 435 kts | 123° |
| 2026-05-06 23:34 | 10.07292 | -79.78567 | 25628 ft | 436 kts | 123° |
| 2026-05-06 23:34 | 10.05513 | -79.76132 | 25227 ft | 437 kts | 123° |
| 2026-05-06 23:34 | 10.03723 | -79.73681 | 24828 ft | 437 kts | 123° |
| 2026-05-06 23:35 | 10.01918 | -79.71207 | 24425 ft | 436 kts | 123° |
| 2026-05-06 23:35 | 10.00112 | -79.68729 | 24029 ft | 436 kts | 123° |
| 2026-05-06 23:35 | 9.98310 | -79.66254 | 23641 ft | 436 kts | 123° |
| 2026-05-06 23:35 | 9.96511 | -79.63784 | 23206 ft | 436 kts | 123° |
| 2026-05-06 23:36 | 9.94710 | -79.61306 | 22745 ft | 436 kts | 123° |
| 2026-05-06 23:36 | 9.92910 | -79.58824 | 22286 ft | 437 kts | 123° |
| 2026-05-06 23:36 | 9.91107 | -79.56338 | 21829 ft | 438 kts | 123° |
| 2026-05-06 23:36 | 9.89304 | -79.53848 | 21403 ft | 438 kts | 123° |
| 2026-05-06 23:37 | 9.87505 | -79.51359 | 22239 ft | 437 kts | 125° |
| 2026-05-06 23:37 | 9.85699 | -79.48859 | 20989 ft | 440 kts | 124° |
| 2026-05-06 23:37 | 9.83697 | -79.46529 | 20972 ft | 441 kts | 137° |
| 2026-05-06 23:37 | 9.81092 | -79.44895 | 20964 ft | 440 kts | 154° |
| 2026-05-06 23:38 | 9.78174 | -79.44138 | 20542 ft | 429 kts | 172° |
| 2026-05-06 23:38 | 9.75245 | -79.43931 | 20117 ft | 414 kts | 171° |
| 2026-05-06 23:38 | 9.72459 | -79.43478 | 19702 ft | 398 kts | 162° |
| 2026-05-06 23:38 | 9.69846 | -79.42693 | 19286 ft | 387 kts | 157° |
| 2026-05-06 23:39 | 9.67345 | -79.41739 | 18880 ft | 382 kts | 154° |
| 2026-05-06 23:39 | 9.64914 | -79.40706 | 18489 ft | 377 kts | 153° |
| 2026-05-06 23:39 | 9.62531 | -79.39631 | 18082 ft | 373 kts | 152° |
| 2026-05-06 23:39 | 9.60183 | -79.38541 | 17623 ft | 369 kts | 152° |
| 2026-05-06 23:40 | 9.57862 | -79.37452 | 17172 ft | 366 kts | 150° |
| 2026-05-06 23:40 | 9.55699 | -79.36136 | 16730 ft | 360 kts | 141° |
| 2026-05-06 23:40 | 9.53700 | -79.34638 | 16289 ft | 356 kts | 139° |
| 2026-05-06 23:40 | 9.51769 | -79.33129 | 15864 ft | 354 kts | 139° |
| 2026-05-06 23:41 | 9.49826 | -79.31611 | 15432 ft | 351 kts | 139° |
| 2026-05-06 23:41 | 9.47894 | -79.30111 | 15015 ft | 349 kts | 140° |
| 2026-05-06 23:41 | 9.45968 | -79.28633 | 14602 ft | 346 kts | 140° |
| 2026-05-06 23:41 | 9.44047 | -79.27178 | 14190 ft | 344 kts | 140° |
| 2026-05-06 23:42 | 9.42133 | -79.25741 | 13794 ft | 341 kts | 141° |
| 2026-05-06 23:42 | 9.40229 | -79.24326 | 13346 ft | 338 kts | 141° |
| 2026-05-06 23:42 | 9.38340 | -79.22925 | 12877 ft | 336 kts | 141° |
| 2026-05-06 23:42 | 9.36462 | -79.21533 | 12443 ft | 333 kts | 141° |
| 2026-05-06 23:43 | 9.34597 | -79.20153 | 12002 ft | 331 kts | 141° |
| 2026-05-06 23:43 | 9.32754 | -79.18789 | 11600 ft | 324 kts | 141° |
| 2026-05-06 23:43 | 9.30969 | -79.17466 | 11267 ft | 312 kts | 141° |
| 2026-05-06 23:43 | 9.29255 | -79.16196 | 10938 ft | 300 kts | 141° |
| 2026-05-06 23:44 | 9.27543 | -79.15046 | 10653 ft | 292 kts | 154° |
| 2026-05-06 23:44 | 9.25578 | -79.14655 | 10433 ft | 291 kts | 181° |
| 2026-05-06 23:44 | 9.23640 | -79.15224 | 10211 ft | 293 kts | 205° |
| 2026-05-06 23:44 | 9.21876 | -79.16250 | 9977 ft | 294 kts | 209° |
| 2026-05-06 23:45 | 9.20153 | -79.17356 | 9742 ft | 293 kts | 211° |
| 2026-05-06 23:45 | 9.18464 | -79.18494 | 9485 ft | 291 kts | 212° |
| 2026-05-06 23:45 | 9.16801 | -79.19650 | 9267 ft | 289 kts | 212° |
| 2026-05-06 23:45 | 9.15158 | -79.20804 | 9067 ft | 288 kts | 213° |
| 2026-05-06 23:46 | 9.13508 | -79.21953 | 8867 ft | 287 kts | 212° |
| 2026-05-06 23:46 | 9.11857 | -79.23091 | 8682 ft | 287 kts | 212° |
| 2026-05-06 23:46 | 9.10201 | -79.24221 | 8486 ft | 287 kts | 212° |
| 2026-05-06 23:46 | 9.08556 | -79.25332 | 8296 ft | 287 kts | 211° |
| 2026-05-06 23:47 | 9.06890 | -79.26448 | 8103 ft | 286 kts | 212° |
| 2026-05-06 23:47 | 9.05223 | -79.27561 | 7909 ft | 285 kts | 212° |
| 2026-05-06 23:47 | 9.03568 | -79.28664 | 7713 ft | 285 kts | 211° |
| 2026-05-06 23:47 | 9.01905 | -79.29757 | 7528 ft | 284 kts | 210° |
| 2026-05-06 23:48 | 9.00204 | -79.30757 | 7344 ft | 282 kts | 207° |
| 2026-05-06 23:48 | 8.98481 | -79.31696 | 7150 ft | 281 kts | 206° |
| 2026-05-06 23:48 | 8.96753 | -79.32620 | 6960 ft | 281 kts | 206° |
| 2026-05-06 23:48 | 8.95026 | -79.33544 | 6773 ft | 282 kts | 206° |
| 2026-05-06 23:49 | 8.93296 | -79.34468 | 6592 ft | 280 kts | 207° |
| 2026-05-06 23:49 | 8.91594 | -79.35380 | 6409 ft | 273 kts | 207° |
| 2026-05-06 23:49 | 8.89936 | -79.36279 | 6196 ft | 269 kts | 207° |
| 2026-05-06 23:49 | 8.88303 | -79.37172 | 5950 ft | 265 kts | 208° |
| 2026-05-06 23:50 | 8.86689 | -79.38061 | 5705 ft | 263 kts | 208° |
| 2026-05-06 23:50 | 8.83570 | -79.39851 | 5225 ft | 255 kts | 219° |
| 2026-05-06 23:50 | 8.82549 | -79.41249 | 4994 ft | 245 kts | 252° |
| 2026-05-06 23:51 | 8.82440 | -79.42912 | 4743 ft | 235 kts | 287° |
| 2026-05-06 23:51 | 8.83167 | -79.44340 | 4504 ft | 226 kts | 309° |
| 2026-05-06 23:51 | 8.84132 | -79.45572 | 4329 ft | 218 kts | 311° |
| 2026-05-06 23:51 | 8.85070 | -79.46747 | 4157 ft | 214 kts | 311° |
| 2026-05-06 23:52 | 8.86007 | -79.47911 | 3983 ft | 214 kts | 311° |
| 2026-05-06 23:52 | 8.86942 | -79.49077 | 3830 ft | 212 kts | 310° |
| 2026-05-06 23:52 | 8.87916 | -79.50196 | 3713 ft | 211 kts | 324° |
| 2026-05-06 23:52 | 8.89271 | -79.50670 | 3618 ft | 210 kts | 4° |
| 2026-05-06 23:53 | 8.90623 | -79.50187 | 3514 ft | 210 kts | 33° |
| 2026-05-06 23:53 | 8.91781 | -79.49336 | 3387 ft | 199 kts | 37° |
| 2026-05-06 23:53 | 8.92843 | -79.48479 | 3260 ft | 193 kts | 39° |
| 2026-05-06 23:53 | 8.93858 | -79.47609 | 3141 ft | 189 kts | 40° |
| 2026-05-06 23:54 | 8.94835 | -79.46735 | 3047 ft | 184 kts | 41° |
| 2026-05-06 23:54 | 8.95781 | -79.45877 | 2892 ft | 181 kts | 41° |
| 2026-05-06 23:54 | 8.96717 | -79.45054 | 2776 ft | 174 kts | 36° |
| 2026-05-06 23:54 | 8.97699 | -79.44389 | 2737 ft | 169 kts | 31° |
| 2026-05-06 23:55 | 8.98732 | -79.43766 | 2679 ft | 175 kts | 30° |
| 2026-05-06 23:55 | 8.99801 | -79.43137 | 2472 ft | 177 kts | 30° |
| 2026-05-06 23:55 | 9.00863 | -79.42502 | 2102 ft | 177 kts | 29° |
| 2026-05-06 23:55 | 9.01908 | -79.41860 | 1663 ft | 175 kts | 29° |
| 2026-05-06 23:56 | 9.02961 | -79.41256 | 1250 ft | 172 kts | 29° |
| 2026-05-06 23:56 | 9.03980 | -79.40675 | 984 ft | 165 kts | 27° |
| 2026-05-06 23:56 | 9.04975 | -79.40111 | 768 ft | 167 kts | 30° |
| 2026-05-06 23:56 | 9.05969 | -79.39513 | 474 ft | 163 kts | 30° |
| 2026-05-06 23:57 | 9.06913 | -79.38960 | 236 ft | 151 kts | 32° |
| 2026-05-06 23:57 | 9.07786 | -79.38429 | 54 ft | 141 kts | 32° |
| 2026-05-06 23:57 | 9.08570 | -79.37958 | 47 ft | 121 kts | 30° |
| 2026-05-06 23:57 | 9.09160 | -79.37602 | 45 ft | 60 kts | 31° |
| 2026-05-06 23:58 | 9.09324 | -79.37494 | 45 ft | 14 kts | 58° |
| 2026-05-06 23:58 | 9.09299 | -79.37392 | 37 ft | 20 kts | 125° |
| 2026-05-06 23:58 | 9.09219 | -79.37346 | 33 ft | 14 kts | 187° |
| 2026-05-06 23:58 | 9.09149 | -79.37363 | 32 ft | 16 kts | 197° |
| 2026-05-06 23:59 | 9.09135 | -79.37368 | 32 ft | 17 kts | 198° |
| 2026-05-06 23:59 | 9.09012 | -79.37408 | 32 ft | 22 kts | 197° |
| 2026-05-06 23:59 | 9.08877 | -79.37455 | 32 ft | 21 kts | 206° |
| 2026-05-06 23:59 | 9.08745 | -79.37533 | 32 ft | 23 kts | 211° |
| 2026-05-07 00:00 | 9.08598 | -79.37623 | 32 ft | 26 kts | 211° |
| 2026-05-07 00:00 | 9.08459 | -79.37725 | 32 ft | 26 kts | 222° |
| 2026-05-07 00:00 | 9.08329 | -79.37861 | 33 ft | 28 kts | 226° |
| 2026-05-07 00:00 | 9.08238 | -79.37957 | 34 ft | 29 kts | 226° |
| 2026-05-07 00:01 | 9.08008 | -79.38120 | 35 ft | 32 kts | 211° |
| 2026-05-07 00:01 | 9.07813 | -79.38238 | 35 ft | 33 kts | 210° |
| 2026-05-07 00:01 | 9.07623 | -79.38348 | 35 ft | 29 kts | 210° |
| 2026-05-07 00:01 | 9.07450 | -79.38456 | 35 ft | 28 kts | 212° |
| 2026-05-07 00:02 | 9.07303 | -79.38546 | 35 ft | 21 kts | 206° |
| 2026-05-07 00:02 | 9.07217 | -79.38571 | 34 ft | 7 kts | 161° |
| 2026-05-07 00:02 | 9.07185 | -79.38551 | 33 ft | 6 kts | 144° |
| 2026-05-07 00:02 | 9.07176 | -79.38545 | 33 ft | 0 kts | 144° |